createdAt,value
2023-04-15T00:01:13.063Z,99.90
2023-04-15T00:03:40.344Z,99.90
2023-04-15T00:06:07.789Z,99.90
2023-04-15T00:08:34.967Z,99.90
2023-04-15T00:11:05.749Z,99.90
2023-04-15T00:13:34.275Z,99.90
2023-04-15T00:16:02.329Z,99.90
2023-04-15T00:18:30.140Z,99.90
2023-04-15T00:20:57.251Z,99.90
2023-04-15T00:23:24.654Z,99.90
2023-04-15T00:25:52.077Z,99.90
2023-04-15T00:28:19.255Z,99.90
2023-04-15T00:30:46.478Z,99.90
2023-04-15T00:33:16.513Z,99.90
2023-04-15T00:35:43.818Z,99.90
2023-04-15T00:38:11.582Z,99.90
2023-04-15T00:40:39.632Z,99.90
2023-04-15T00:43:07.154Z,99.90
2023-04-15T00:45:34.370Z,99.90
2023-04-15T00:48:01.870Z,99.90
2023-04-15T00:50:29.033Z,99.90
2023-04-15T00:52:56.245Z,99.90
2023-04-15T00:55:23.749Z,99.90
2023-04-15T00:57:51.990Z,99.90
2023-04-15T01:00:20.396Z,99.90
2023-04-15T01:02:47.891Z,99.90
2023-04-15T01:05:18.732Z,99.90
2023-04-15T01:07:47.964Z,99.90
2023-04-15T01:10:15.115Z,99.90
2023-04-15T01:12:43.400Z,99.90
2023-04-15T01:15:11.282Z,99.90
2023-04-15T01:17:39.455Z,99.90
2023-04-15T01:20:10.196Z,99.90
2023-04-15T01:22:37.572Z,99.90
2023-04-15T01:25:20.460Z,99.90
2023-04-15T01:27:47.787Z,99.90
2023-04-15T01:30:15.719Z,99.90
2023-04-15T01:32:43.993Z,99.90
2023-04-15T01:35:11.109Z,99.90
2023-04-15T01:37:38.213Z,99.90
2023-04-15T01:40:08.048Z,99.90
2023-04-15T01:42:37.660Z,99.90
2023-04-15T01:45:05.457Z,99.90
2023-04-15T01:47:32.711Z,99.90
2023-04-15T01:49:59.888Z,99.90
2023-04-15T01:52:27.034Z,99.90
2023-04-15T01:54:54.164Z,99.90
2023-04-15T01:57:21.536Z,99.90
2023-04-15T01:59:48.666Z,99.90
2023-04-15T02:02:16.332Z,99.90
2023-04-15T02:04:43.551Z,99.90
2023-04-15T02:07:10.596Z,99.90
2023-04-15T02:09:37.662Z,99.90
2023-04-15T02:12:06.121Z,99.90
2023-04-15T02:14:33.206Z,99.90
2023-04-15T02:17:07.244Z,99.90
2023-04-15T02:19:37.468Z,99.90
2023-04-15T02:22:04.581Z,99.90
2023-04-15T02:24:31.802Z,99.90
2023-04-15T02:26:59.000Z,99.90
2023-04-15T02:29:26.273Z,99.90
2023-04-15T02:31:53.629Z,99.90
2023-04-15T02:34:20.765Z,99.90
2023-04-15T02:36:49.650Z,99.90
2023-04-15T02:39:18.710Z,99.90
2023-04-15T02:41:47.897Z,99.90
2023-04-15T02:44:15.150Z,99.90
2023-04-15T02:46:42.237Z,99.90
2023-04-15T02:49:09.594Z,99.90
2023-04-15T02:51:36.696Z,99.90
2023-04-15T02:54:04.567Z,99.90
2023-04-15T02:56:31.777Z,99.90
2023-04-15T02:58:59.004Z,99.90
2023-04-15T03:01:26.529Z,99.90
2023-04-15T03:03:53.689Z,99.90
2023-04-15T03:06:20.830Z,99.90
2023-04-15T03:08:47.955Z,99.90
2023-04-15T03:11:16.338Z,99.90
2023-04-15T03:13:43.515Z,99.90
2023-04-15T03:16:11.347Z,99.90
2023-04-15T03:18:38.591Z,99.90
2023-04-15T03:21:06.713Z,99.90
2023-04-15T03:23:33.853Z,99.90
2023-04-15T03:26:04.872Z,99.90
2023-04-15T03:28:32.821Z,99.90
2023-04-15T03:31:00.717Z,99.90
2023-04-15T03:33:27.892Z,99.90
2023-04-15T03:35:54.985Z,99.90
2023-04-15T03:38:22.073Z,99.90
2023-04-15T03:40:49.155Z,99.90
2023-04-15T03:43:16.655Z,99.90
2023-04-15T03:45:43.796Z,99.90
2023-04-15T03:48:17.653Z,99.90
2023-04-15T03:50:46.450Z,99.90
2023-04-15T03:53:13.536Z,99.90
2023-04-15T03:55:40.683Z,99.90
2023-04-15T03:58:07.942Z,99.90
2023-04-15T04:00:34.975Z,99.90
2023-04-15T04:03:02.290Z,99.90
2023-04-15T04:05:29.749Z,99.90
2023-04-15T04:07:56.940Z,99.90
2023-04-15T04:10:24.006Z,99.90
2023-04-15T04:12:52.405Z,99.90
2023-04-15T04:15:19.496Z,99.90
2023-04-15T04:17:46.903Z,99.90
2023-04-15T04:20:14.045Z,99.90
2023-04-15T04:22:41.481Z,99.90
2023-04-15T04:25:10.355Z,99.90
2023-04-15T04:27:37.583Z,99.90
2023-04-15T04:30:07.376Z,99.90
2023-04-15T04:32:34.608Z,99.90
2023-04-15T04:35:01.719Z,99.90
2023-04-15T04:37:28.894Z,99.90
2023-04-15T04:39:56.246Z,99.90
2023-04-15T04:42:23.477Z,99.90
2023-04-15T04:44:50.580Z,99.90
2023-04-15T04:47:17.682Z,99.90
2023-04-15T04:49:45.340Z,99.90
2023-04-15T04:52:12.974Z,99.90
2023-04-15T04:54:41.140Z,99.90
2023-04-15T04:57:08.302Z,99.90
2023-04-15T04:59:35.413Z,99.90
2023-04-15T05:02:03.463Z,99.90
2023-04-15T05:04:32.083Z,99.90
2023-04-15T05:06:59.854Z,99.90
2023-04-15T05:09:26.917Z,99.90
2023-04-15T05:11:54.364Z,99.90
2023-04-15T05:14:23.349Z,99.90
2023-04-15T05:16:50.542Z,99.90
2023-04-15T05:19:17.630Z,99.90
2023-04-15T05:21:44.789Z,99.90
2023-04-15T05:24:11.949Z,99.90
2023-04-15T05:26:39.078Z,99.90
2023-04-15T05:29:06.361Z,99.90
2023-04-15T05:31:33.564Z,99.90
2023-04-15T05:34:02.625Z,99.90
2023-04-15T05:36:29.673Z,99.90
2023-04-15T05:38:56.780Z,99.90
2023-04-15T05:41:24.058Z,99.90
2023-04-15T05:43:51.241Z,99.90
2023-04-15T05:46:18.434Z,99.90
2023-04-15T05:48:45.649Z,99.90
2023-04-15T05:51:12.814Z,99.90
2023-04-15T05:53:41.693Z,99.90
2023-04-15T05:56:08.780Z,99.90
2023-04-15T05:58:35.973Z,99.90
2023-04-15T06:01:04.061Z,99.90
2023-04-15T06:03:31.422Z,99.90
2023-04-15T06:05:58.657Z,99.90
2023-04-15T06:08:25.952Z,99.90
2023-04-15T06:10:53.084Z,99.90
2023-04-15T06:13:20.247Z,99.90
2023-04-15T06:15:47.518Z,99.90
2023-04-15T06:18:14.647Z,99.90
2023-04-15T06:20:41.914Z,99.90
2023-04-15T06:23:09.019Z,99.90
2023-04-15T06:25:36.130Z,99.90
2023-04-15T06:28:03.317Z,99.90
2023-04-15T06:30:30.648Z,99.90
2023-04-15T06:32:58.148Z,99.90
2023-04-15T06:35:25.216Z,99.90
2023-04-15T06:37:52.850Z,99.90
2023-04-15T06:40:20.078Z,99.90
2023-04-15T06:42:47.201Z,99.90
2023-04-15T06:45:14.449Z,99.90
2023-04-15T06:47:42.168Z,99.90
2023-04-15T06:50:10.190Z,99.90
2023-04-15T06:52:37.610Z,99.90
2023-04-15T06:55:05.564Z,99.90
2023-04-15T06:57:34.913Z,99.90
2023-04-15T07:00:02.720Z,99.90
2023-04-15T07:02:29.960Z,99.90
2023-04-15T07:04:57.200Z,99.90
2023-04-15T07:07:24.273Z,99.90
2023-04-15T07:09:52.326Z,99.90
2023-04-15T07:12:19.812Z,99.90
2023-04-15T07:14:46.904Z,99.90
2023-04-15T07:17:14.157Z,99.90
2023-04-15T07:19:41.352Z,99.90
2023-04-15T07:22:08.516Z,99.90
2023-04-15T07:24:35.667Z,99.90
2023-04-15T07:27:04.172Z,99.90
2023-04-15T07:29:31.604Z,99.90
2023-04-15T07:31:58.798Z,99.90
2023-04-15T07:34:26.023Z,99.90
2023-04-15T07:36:53.153Z,99.90
2023-04-15T07:39:20.509Z,99.90
2023-04-15T07:41:47.757Z,99.90
2023-04-15T07:44:14.988Z,99.90
2023-04-15T07:46:42.161Z,99.90
2023-04-15T07:49:09.372Z,99.90
2023-04-15T07:51:37.346Z,99.90
2023-04-15T07:54:04.791Z,99.90
2023-04-15T07:56:32.729Z,99.90
2023-04-15T07:59:02.356Z,99.90
2023-04-15T08:01:29.742Z,99.90
2023-04-15T08:03:57.326Z,99.90
2023-04-15T08:06:24.540Z,99.90
2023-04-15T08:08:52.133Z,99.90
2023-04-15T08:11:19.453Z,99.90
2023-04-15T08:13:47.733Z,99.90
2023-04-15T08:16:27.673Z,99.90
2023-04-15T08:18:57.898Z,99.90
2023-04-15T08:21:25.386Z,99.90
2023-04-15T08:23:53.846Z,99.90
2023-04-15T08:26:21.723Z,99.90
2023-04-15T08:28:49.956Z,99.90
2023-04-15T08:31:18.864Z,99.90
2023-04-15T08:33:47.799Z,99.90
2023-04-15T08:36:15.047Z,99.90
2023-04-15T08:38:42.246Z,99.90
2023-04-15T08:41:35.905Z,99.90
2023-04-15T08:44:06.298Z,99.90
2023-04-15T08:46:34.942Z,99.90
2023-04-15T08:49:05.274Z,99.90
2023-04-15T08:51:34.067Z,99.90
2023-04-15T08:54:02.627Z,99.90
2023-04-15T08:56:34.732Z,99.90
2023-04-15T08:59:02.856Z,99.90
2023-04-15T09:01:30.297Z,99.90
2023-04-15T09:03:59.500Z,99.90
2023-04-15T09:06:27.239Z,99.90
2023-04-15T09:08:54.906Z,99.90
2023-04-15T09:11:23.026Z,99.90
2023-04-15T09:13:50.775Z,99.90
2023-04-15T09:16:19.031Z,99.90
2023-04-15T09:18:46.328Z,99.90
2023-04-15T09:21:16.681Z,99.90
2023-04-15T09:24:00.097Z,99.90
2023-04-15T09:26:38.122Z,99.90
2023-04-15T09:29:10.627Z,99.90
2023-04-15T09:31:37.949Z,99.90
2023-04-15T09:34:05.813Z,99.90
2023-04-15T09:36:49.790Z,99.90
2023-04-15T09:39:18.156Z,99.90
2023-04-15T09:41:45.431Z,99.90
2023-04-15T09:44:26.474Z,99.90
2023-04-15T09:46:53.705Z,99.90
2023-04-15T09:49:21.120Z,99.90
2023-04-15T09:52:04.134Z,99.90
2023-04-15T09:54:37.819Z,99.90
2023-04-15T09:57:10.875Z,99.90
2023-04-15T09:59:38.106Z,99.90
2023-04-15T10:02:09.276Z,99.90
2023-04-15T10:04:40.787Z,99.90
2023-04-15T10:07:09.985Z,99.90
2023-04-15T10:09:38.705Z,99.90
2023-04-15T10:12:06.294Z,99.90
2023-04-15T10:14:36.532Z,99.90
2023-04-15T10:17:05.861Z,99.90
2023-04-15T10:19:37.329Z,99.90
2023-04-15T10:22:04.974Z,99.90
2023-04-15T10:24:32.529Z,99.90
2023-04-15T10:27:01.367Z,99.90
2023-04-15T10:29:28.702Z,99.90
2023-04-15T10:31:57.046Z,99.90
2023-04-15T10:34:25.750Z,99.90
2023-04-15T10:36:59.154Z,99.90
2023-04-15T10:39:39.910Z,99.90
2023-04-15T10:42:16.663Z,99.90
2023-04-15T10:44:49.572Z,99.90
2023-04-15T10:47:20.597Z,99.90
2023-04-15T10:49:50.485Z,99.90
2023-04-15T10:52:23.737Z,99.90
2023-04-15T10:54:50.912Z,99.90
2023-04-15T10:57:23.760Z,99.90
2023-04-15T11:00:06.527Z,99.90
2023-04-15T11:02:45.257Z,99.90
2023-04-15T11:05:16.976Z,99.90
2023-04-15T11:07:48.789Z,99.90
2023-04-15T11:10:21.203Z,99.90
2023-04-15T11:12:57.759Z,99.90
2023-04-15T11:15:40.564Z,99.90
2023-04-15T11:18:30.162Z,99.90
2023-04-15T11:21:08.417Z,99.90
2023-04-15T11:23:47.020Z,99.90
2023-04-15T11:26:15.457Z,99.90
2023-04-15T11:28:45.124Z,99.90
2023-04-15T11:31:15.246Z,99.90
2023-04-15T11:34:02.434Z,99.90
2023-04-15T11:36:32.246Z,99.90
2023-04-15T11:39:00.553Z,99.90
2023-04-15T11:41:27.886Z,99.90
2023-04-15T11:43:55.101Z,99.90
2023-04-15T11:46:29.637Z,99.90
2023-04-15T11:48:56.764Z,99.90
2023-04-15T11:51:23.994Z,99.30
2023-04-15T11:53:52.124Z,96.80
2023-04-15T11:56:26.245Z,94.60
2023-04-15T11:59:01.266Z,93.20
2023-04-15T12:01:42.484Z,96.40
2023-04-15T12:04:23.519Z,95.40
2023-04-15T12:06:52.437Z,99.90
2023-04-15T12:09:21.765Z,99.90
2023-04-15T12:11:58.357Z,99.40
2023-04-15T12:14:28.491Z,98.90
2023-04-15T12:17:03.161Z,98.40
2023-04-15T12:19:38.186Z,99.80
2023-04-15T12:22:10.998Z,99.90
2023-04-15T12:24:39.098Z,99.90
2023-04-15T12:27:08.661Z,99.90
2023-04-15T12:29:39.219Z,99.90
2023-04-15T12:32:14.797Z,99.90
2023-04-15T12:34:56.704Z,99.90
2023-04-15T12:37:24.037Z,99.90
2023-04-15T12:39:52.386Z,99.90
2023-04-15T12:42:19.902Z,99.90
2023-04-15T12:44:47.406Z,99.90
2023-04-15T12:47:14.932Z,99.90
2023-04-15T12:49:42.383Z,99.90
2023-04-15T12:52:09.735Z,99.90
2023-04-15T12:54:37.314Z,99.90
2023-04-15T12:57:06.903Z,99.90
2023-04-15T12:59:35.193Z,99.90
2023-04-15T13:02:03.276Z,99.90
2023-04-15T13:04:31.481Z,99.90
2023-04-15T13:07:00.318Z,99.90
2023-04-15T13:09:27.405Z,99.90
2023-04-15T13:11:54.819Z,99.90
2023-04-15T13:14:22.125Z,99.90
2023-04-15T13:16:49.377Z,99.90
2023-04-15T13:19:16.561Z,99.90
2023-04-15T13:21:43.635Z,99.90
2023-04-15T13:24:10.700Z,99.90
2023-04-15T13:26:38.111Z,99.90
2023-04-15T13:29:05.666Z,99.90
2023-04-15T13:31:32.923Z,99.90
2023-04-15T13:34:00.183Z,99.90
2023-04-15T13:36:27.568Z,99.90
2023-04-15T13:38:54.981Z,99.90
2023-04-15T13:41:22.135Z,99.90
2023-04-15T13:43:49.183Z,99.90
2023-04-15T13:46:16.809Z,99.90
2023-04-15T13:48:43.988Z,99.90
2023-04-15T13:51:11.138Z,99.90
2023-04-15T13:53:39.808Z,99.90
2023-04-15T13:56:08.780Z,99.90
2023-04-15T13:58:37.268Z,99.90
2023-04-15T14:01:07.700Z,99.90
2023-04-15T14:03:36.947Z,99.90
2023-04-15T14:06:07.797Z,99.90
2023-04-15T14:08:36.391Z,99.90
2023-04-15T14:11:03.456Z,99.90
2023-04-15T14:13:30.841Z,99.90
2023-04-15T14:15:59.382Z,99.90
2023-04-15T14:18:26.717Z,99.90
2023-04-15T14:20:54.064Z,99.90
2023-04-15T14:23:22.819Z,99.90
2023-04-15T14:25:52.202Z,99.90
2023-04-15T14:28:20.704Z,99.90
2023-04-15T14:30:47.925Z,99.90
2023-04-15T14:33:15.037Z,99.90
2023-04-15T14:35:42.169Z,99.90
2023-04-15T14:38:11.540Z,99.90
2023-04-15T14:40:39.205Z,99.90
2023-04-15T14:43:06.287Z,99.90
2023-04-15T14:45:33.651Z,99.90
2023-04-15T14:48:01.080Z,99.90
2023-04-15T14:50:28.788Z,99.90
2023-04-15T14:52:56.082Z,99.90
2023-04-15T14:55:23.187Z,99.90
2023-04-15T14:57:50.335Z,99.90
2023-04-15T15:00:17.659Z,99.90
2023-04-15T15:02:45.067Z,99.90
2023-04-15T15:05:12.532Z,99.90
2023-04-15T15:07:41.138Z,99.90
2023-04-15T15:10:08.744Z,99.90
2023-04-15T15:12:35.959Z,99.90
2023-04-15T15:15:12.276Z,99.90
2023-04-15T15:17:43.237Z,99.90
2023-04-15T15:20:11.077Z,99.90
2023-04-15T15:22:38.204Z,99.90
2023-04-15T15:25:06.381Z,99.90
2023-04-15T15:27:33.662Z,99.90
2023-04-15T15:30:00.869Z,99.90
2023-04-15T15:32:28.048Z,99.90
2023-04-15T15:34:55.395Z,99.90
2023-04-15T15:37:22.473Z,99.90
2023-04-15T15:39:50.845Z,99.90
2023-04-15T15:42:20.196Z,99.90
2023-04-15T15:44:49.278Z,99.90
2023-04-15T15:47:17.177Z,99.90
2023-04-15T15:49:44.525Z,99.90
2023-04-15T15:52:12.035Z,99.90
2023-04-15T15:54:41.317Z,99.90
2023-04-15T15:57:08.664Z,99.90
2023-04-15T15:59:35.885Z,99.90
2023-04-15T16:02:03.268Z,99.90
2023-04-15T16:04:30.655Z,99.90
2023-04-15T16:06:58.022Z,99.90
2023-04-15T16:09:25.146Z,99.90
2023-04-15T16:11:52.352Z,99.90
2023-04-15T16:14:19.772Z,99.90
2023-04-15T16:16:47.076Z,99.90
2023-04-15T16:19:14.214Z,99.90
2023-04-15T16:21:41.446Z,99.90
2023-04-15T16:24:08.504Z,99.90
2023-04-15T16:26:35.566Z,99.90
2023-04-15T16:29:03.450Z,99.90
2023-04-15T16:31:31.417Z,99.90
2023-04-15T16:33:58.588Z,99.90
2023-04-15T16:36:26.066Z,99.90
2023-04-15T16:38:53.319Z,99.90
2023-04-15T16:41:20.954Z,99.90
2023-04-15T16:43:48.001Z,99.90
2023-04-15T16:46:15.149Z,99.90
2023-04-15T16:48:42.283Z,99.90
2023-04-15T16:51:09.385Z,99.90
2023-04-15T16:53:36.543Z,99.90
2023-04-15T16:56:03.687Z,99.90
2023-04-15T16:58:30.716Z,99.90
2023-04-15T17:00:58.876Z,99.90
2023-04-15T17:03:26.535Z,99.90
2023-04-15T17:05:53.697Z,99.90
2023-04-15T17:08:20.761Z,99.90
2023-04-15T17:10:47.942Z,99.90
2023-04-15T17:13:15.025Z,99.90
2023-04-15T17:15:42.411Z,99.90
2023-04-15T17:18:10.671Z,99.90
2023-04-15T17:20:39.729Z,99.90
2023-04-15T17:23:06.804Z,99.90
2023-04-15T17:25:33.952Z,99.90
2023-04-15T17:28:01.422Z,99.90
2023-04-15T17:30:28.524Z,99.90
2023-04-15T17:32:56.809Z,99.90
2023-04-15T17:35:25.704Z,99.90
2023-04-15T17:37:52.727Z,99.90
2023-04-15T17:40:21.801Z,99.90
2023-04-15T17:42:51.530Z,99.90
2023-04-15T17:45:19.295Z,99.90
2023-04-15T17:47:46.577Z,99.90
2023-04-15T17:50:13.769Z,99.90
2023-04-15T17:52:41.455Z,99.90
2023-04-15T17:55:09.294Z,99.90
2023-04-15T17:57:36.682Z,99.90
2023-04-15T18:00:04.325Z,99.90
2023-04-15T18:02:33.235Z,99.90
2023-04-15T18:05:01.868Z,99.90
2023-04-15T18:07:29.174Z,99.90
2023-04-15T18:09:56.721Z,99.90
2023-04-15T18:12:23.761Z,99.90
2023-04-15T18:14:50.910Z,99.90
2023-04-15T18:17:18.292Z,99.90
2023-04-15T18:19:46.000Z,99.90
2023-04-15T18:22:13.143Z,99.90
2023-04-15T18:24:40.866Z,99.90
2023-04-15T18:27:10.301Z,99.90
2023-04-15T18:29:37.350Z,99.90
2023-04-15T18:32:04.585Z,99.90
2023-04-15T18:34:31.752Z,99.90
2023-04-15T18:36:59.024Z,99.90
2023-04-15T18:39:28.508Z,99.90
2023-04-15T18:41:57.277Z,99.90
2023-04-15T18:44:24.491Z,99.90
2023-04-15T18:46:51.746Z,99.90
2023-04-15T18:49:18.825Z,99.90
2023-04-15T18:51:46.511Z,99.90
2023-04-15T18:54:13.633Z,99.90
2023-04-15T18:56:40.815Z,99.90
2023-04-15T18:59:28.444Z,99.90
2023-04-15T19:01:55.756Z,99.90
2023-04-15T19:04:25.910Z,99.90
2023-04-15T19:06:52.991Z,99.90
2023-04-15T19:09:20.227Z,99.90
2023-04-15T19:11:47.761Z,99.90
2023-04-15T19:14:14.817Z,99.90
2023-04-15T19:16:41.927Z,99.90
2023-04-15T19:19:09.089Z,99.90
2023-04-15T19:21:36.186Z,99.90
2023-04-15T19:24:03.389Z,99.90
2023-04-15T19:26:30.565Z,99.90
2023-04-15T19:28:58.978Z,99.90
2023-04-15T19:31:26.637Z,99.90
2023-04-15T19:33:53.706Z,99.90
2023-04-15T19:36:20.806Z,99.90
2023-04-15T19:38:47.955Z,99.90
2023-04-15T19:41:16.016Z,99.90
2023-04-15T19:43:43.153Z,99.90
2023-04-15T19:46:13.297Z,99.90
2023-04-15T19:48:40.700Z,99.90
2023-04-15T19:51:07.820Z,99.90
2023-04-15T19:53:35.070Z,99.90
2023-04-15T19:56:02.287Z,99.90
2023-04-15T19:58:29.680Z,99.90
2023-04-15T20:00:57.314Z,99.90
2023-04-15T20:03:24.596Z,99.90
2023-04-15T20:05:52.783Z,99.90
2023-04-15T20:08:20.058Z,99.90
2023-04-15T20:10:47.292Z,99.90
2023-04-15T20:13:15.430Z,99.90
2023-04-15T20:15:42.792Z,99.90
2023-04-15T20:18:10.051Z,99.90
2023-04-15T20:20:41.701Z,99.90
2023-04-15T20:23:08.869Z,99.90
2023-04-15T20:25:36.562Z,99.90
2023-04-15T20:28:03.779Z,99.90
2023-04-15T20:30:31.122Z,99.90
2023-04-15T20:32:58.332Z,99.90
2023-04-15T20:35:28.183Z,99.90
2023-04-15T20:37:56.256Z,99.90
2023-04-15T20:40:23.380Z,99.90
2023-04-15T20:42:51.912Z,99.90
2023-04-15T20:45:20.583Z,99.90
2023-04-15T20:47:47.759Z,99.90
2023-04-15T20:50:15.034Z,99.90
2023-04-15T20:52:42.255Z,99.90
2023-04-15T20:55:09.672Z,99.90
2023-04-15T20:57:36.740Z,99.90
2023-04-15T21:00:05.128Z,99.90
2023-04-15T21:02:32.421Z,99.90
2023-04-15T21:04:59.718Z,99.90
2023-04-15T21:07:26.862Z,99.90
2023-04-15T21:09:55.341Z,99.90
2023-04-15T21:12:22.469Z,99.90
2023-04-15T21:14:50.669Z,99.90
2023-04-15T21:17:17.802Z,99.90
2023-04-15T21:19:44.939Z,99.90
2023-04-15T21:22:12.122Z,99.90
2023-04-15T21:24:39.250Z,99.90
2023-04-15T21:27:06.486Z,99.90
2023-04-15T21:29:34.935Z,99.90
2023-04-15T21:32:04.401Z,99.90
2023-04-15T21:34:31.673Z,99.90
2023-04-15T21:36:59.270Z,99.90
2023-04-15T21:39:26.496Z,99.90
2023-04-15T21:41:53.640Z,99.90
2023-04-15T21:44:20.920Z,99.90
2023-04-15T21:46:48.176Z,99.90
2023-04-15T21:49:16.059Z,99.90
2023-04-15T21:51:43.248Z,99.90
2023-04-15T21:54:10.414Z,99.90
2023-04-15T21:56:38.051Z,99.90
2023-04-15T21:59:05.378Z,99.90
2023-04-15T22:01:32.698Z,99.90
2023-04-15T22:04:00.145Z,99.90
2023-04-15T22:06:27.554Z,99.90
2023-04-15T22:08:57.474Z,99.90
2023-04-15T22:11:28.817Z,99.90
2023-04-15T22:13:57.472Z,99.90
2023-04-15T22:16:28.121Z,99.90
2023-04-15T22:18:55.962Z,99.90
2023-04-15T22:21:23.652Z,99.90
2023-04-15T22:23:52.201Z,99.90
2023-04-15T22:26:19.489Z,99.90
2023-04-15T22:28:46.568Z,99.90
2023-04-15T22:31:14.966Z,99.90
2023-04-15T22:33:42.293Z,99.90
2023-04-15T22:36:09.395Z,99.90
2023-04-15T22:38:36.529Z,99.90
2023-04-15T22:41:03.612Z,99.90
2023-04-15T22:43:30.671Z,99.90
2023-04-15T22:45:57.930Z,99.90
2023-04-15T22:48:25.106Z,99.90
2023-04-15T22:50:52.886Z,99.90
2023-04-15T22:53:20.305Z,99.90
2023-04-15T22:55:48.698Z,99.90
2023-04-15T22:58:17.176Z,99.90
2023-04-15T23:00:44.880Z,99.90
2023-04-15T23:03:12.469Z,99.90
2023-04-15T23:05:41.320Z,99.90
2023-04-15T23:08:08.787Z,99.90
2023-04-15T23:10:35.922Z,99.90
2023-04-15T23:13:03.074Z,99.90
2023-04-15T23:15:30.205Z,99.90
2023-04-15T23:17:57.404Z,99.90
2023-04-15T23:20:24.486Z,99.90
2023-04-15T23:22:51.623Z,99.90
2023-04-15T23:25:22.263Z,99.90
2023-04-15T23:27:49.375Z,99.90
2023-04-15T23:30:16.651Z,99.90
2023-04-15T23:32:43.871Z,99.90
2023-04-15T23:35:11.341Z,99.90
2023-04-15T23:37:38.504Z,99.90
2023-04-15T23:40:06.592Z,99.90
2023-04-15T23:42:33.722Z,99.90
2023-04-15T23:45:00.941Z,99.90
2023-04-15T23:47:28.099Z,99.90
2023-04-15T23:49:55.295Z,99.90
2023-04-15T23:52:22.898Z,99.90
2023-04-15T23:54:49.979Z,99.90
2023-04-15T23:57:18.754Z,99.90
2023-04-15T23:59:46.343Z,99.90
